createdAt,value
2019-05-30T00:00:18.178Z,11.2
2019-05-30T00:01:04.388Z,11.2
2019-05-30T00:02:02.814Z,11.1
2019-05-30T00:03:04.523Z,11.1
2019-05-30T00:04:05.012Z,11.1
2019-05-30T00:05:02.890Z,11.1
2019-05-30T00:06:03.022Z,11
2019-05-30T00:07:02.928Z,11.1
2019-05-30T00:08:02.597Z,11.1
2019-05-30T00:09:04.680Z,11.1
2019-05-30T00:10:03.143Z,11.1
2019-05-30T00:11:04.972Z,11.1
2019-05-30T00:12:03.222Z,11.1
2019-05-30T00:13:03.035Z,11.1
2019-05-30T00:14:02.949Z,11.1
2019-05-30T00:15:06.683Z,11.1
2019-05-30T00:16:03.189Z,11
2019-05-30T00:17:03.241Z,11
2019-05-30T00:18:03.059Z,11.1
2019-05-30T00:19:03.041Z,11
2019-05-30T00:20:05.843Z,10.9
2019-05-30T00:21:03.069Z,10.9
2019-05-30T00:22:05.731Z,10.9
2019-05-30T00:23:02.942Z,10.8
2019-05-30T00:24:02.496Z,10.8
2019-05-30T00:25:04.451Z,10.8
2019-05-30T00:26:03.509Z,10.8
2019-05-30T00:27:04.696Z,10.8
2019-05-30T00:28:05.432Z,10.8
2019-05-30T00:29:02.790Z,10.8
2019-05-30T00:30:03.712Z,10.8
2019-05-30T00:31:03.045Z,10.8
2019-05-30T00:32:05.286Z,10.8
2019-05-30T00:33:05.317Z,10.8
2019-05-30T00:34:04.352Z,10.7
2019-05-30T00:35:03.938Z,10.6
2019-05-30T00:36:04.051Z,10.6
2019-05-30T00:37:04.237Z,10.6
2019-05-30T00:38:03.947Z,10.5
2019-05-30T00:39:04.037Z,10.5
2019-05-30T00:40:04.280Z,10.5
2019-05-30T00:41:04.361Z,10.5
2019-05-30T00:42:04.415Z,10.6
2019-05-30T00:43:04.378Z,10.6
2019-05-30T00:44:04.573Z,10.6
2019-05-30T00:45:21.574Z,10.5
2019-05-30T00:46:02.631Z,10.6
2019-05-30T00:47:04.646Z,10.6
2019-05-30T00:48:02.605Z,10.6
2019-05-30T00:49:04.711Z,10.5
2019-05-30T00:50:04.487Z,10.4
2019-05-30T00:51:03.096Z,10.4
2019-05-30T00:52:02.805Z,10.6
2019-05-30T00:53:03.059Z,10.5
2019-05-30T00:54:03.042Z,10.5
2019-05-30T00:55:04.836Z,10.5
2019-05-30T00:56:03.302Z,10.4
2019-05-30T00:57:02.932Z,10.4
2019-05-30T00:58:03.198Z,10.4
2019-05-30T00:59:03.263Z,10.4
2019-05-30T01:00:03.753Z,10.4
2019-05-30T01:01:03.276Z,10.3
2019-05-30T01:02:02.967Z,10.3
2019-05-30T01:03:08.949Z,10.3
2019-05-30T01:04:03.276Z,10.3
2019-05-30T01:05:05.054Z,10.2
2019-05-30T01:06:03.140Z,10.1
2019-05-30T01:07:05.254Z,10.1
2019-05-30T01:08:03.493Z,10.1
2019-05-30T01:09:03.429Z,10.1
2019-05-30T01:10:03.342Z,9.9
2019-05-30T01:11:03.513Z,9.8
2019-05-30T01:12:03.235Z,9.9
2019-05-30T01:13:03.252Z,9.9
2019-05-30T01:14:05.502Z,9.7
2019-05-30T01:15:03.504Z,9.6
2019-05-30T01:16:03.366Z,9.6
2019-05-30T01:17:03.358Z,9.4
2019-05-30T01:18:03.340Z,9.4
2019-05-30T01:19:03.372Z,9.3
2019-05-30T01:20:03.336Z,9.2
2019-05-30T01:21:03.412Z,9.3
2019-05-30T01:22:03.585Z,9.2
2019-05-30T01:23:03.419Z,9.3
2019-05-30T01:24:03.680Z,9.2
2019-05-30T01:25:06.052Z,9.3
2019-05-30T01:26:03.578Z,9.4
2019-05-30T01:27:03.592Z,9.4
2019-05-30T01:28:03.762Z,9.4
2019-05-30T01:29:03.570Z,9.5
2019-05-30T01:30:03.863Z,9.4
2019-05-30T01:31:11.731Z,9.4
2019-05-30T01:32:03.764Z,9.4
2019-05-30T01:33:03.982Z,9.5
2019-05-30T01:34:03.817Z,9.4
2019-05-30T01:35:04.033Z,9.4
2019-05-30T01:36:03.881Z,9.4
2019-05-30T01:37:03.905Z,9.4
2019-05-30T01:38:04.083Z,9.5
2019-05-30T01:39:03.928Z,9.4
2019-05-30T01:40:04.364Z,9.4
2019-05-30T01:41:04.266Z,9.4
2019-05-30T01:42:03.971Z,9.4
2019-05-30T01:43:04.227Z,9.4
2019-05-30T01:44:04.088Z,9.3
2019-05-30T01:45:04.352Z,9.2
2019-05-30T01:46:04.381Z,9.1
2019-05-30T01:47:04.224Z,9.2
2019-05-30T01:48:04.762Z,9.2
2019-05-30T01:49:04.404Z,9.2
2019-05-30T01:50:02.715Z,9.3
2019-05-30T01:51:04.706Z,9.2
2019-05-30T01:52:04.221Z,9.2
2019-05-30T01:53:02.779Z,9.2
2019-05-30T01:54:04.703Z,9.1
2019-05-30T01:55:03.014Z,9.1
2019-05-30T01:56:02.909Z,9.1
2019-05-30T01:57:03.176Z,9.1
2019-05-30T01:58:03.393Z,9.1
2019-05-30T01:59:02.819Z,9.2
2019-05-30T02:00:21.739Z,9.2
2019-05-30T02:01:25.483Z,9.2
2019-05-30T02:02:03.384Z,0
2019-05-30T02:03:03.102Z,0
2019-05-30T02:04:03.435Z,9.1
2019-05-30T02:05:03.247Z,9.1
2019-05-30T02:06:03.509Z,9.1
2019-05-30T02:07:03.490Z,9.1
2019-05-30T02:08:03.275Z,8.9
2019-05-30T02:09:03.358Z,8.9
2019-05-30T02:10:03.438Z,8.8
2019-05-30T02:11:03.565Z,8.9
2019-05-30T02:12:03.804Z,8.9
2019-05-30T02:13:03.487Z,8.9
2019-05-30T02:14:03.717Z,8.9
2019-05-30T02:15:03.747Z,8.9
2019-05-30T02:16:03.869Z,8.9
2019-05-30T02:17:03.806Z,8.9
2019-05-30T02:18:03.705Z,8.9
2019-05-30T02:19:03.845Z,8.9
2019-05-30T02:20:03.767Z,8.8
2019-05-30T02:21:03.878Z,8.8
2019-05-30T02:22:03.862Z,8.8
2019-05-30T02:23:07.979Z,8.7
2019-05-30T02:24:03.975Z,8.6
2019-05-30T02:25:04.030Z,8.6
2019-05-30T02:26:04.333Z,8.5
2019-05-30T02:27:04.282Z,8.4
2019-05-30T02:28:02.500Z,8.4
2019-05-30T02:29:04.318Z,8.4
2019-05-30T02:30:10.884Z,8.3
2019-05-30T02:31:07.625Z,8.3
2019-05-30T02:32:07.136Z,8.3
2019-05-30T02:33:05.759Z,8.3
2019-05-30T02:34:07.026Z,8.3
2019-05-30T02:35:08.245Z,8.3
2019-05-30T02:36:07.840Z,8.1
2019-05-30T02:37:08.550Z,8.2
2019-05-30T02:38:05.740Z,8.2
2019-05-30T02:39:04.822Z,7.9
2019-05-30T02:40:14.517Z,7.9
2019-05-30T02:41:07.722Z,7.9
2019-05-30T02:42:05.285Z,8
2019-05-30T02:43:07.654Z,8.1
2019-05-30T02:44:03.165Z,8.1
2019-05-30T02:45:07.821Z,8.1
2019-05-30T02:46:07.968Z,8.2
2019-05-30T02:47:07.300Z,8.3
2019-05-30T02:48:05.488Z,8.3
2019-05-30T02:49:11.116Z,8.2
2019-05-30T02:50:08.557Z,8.1
2019-05-30T02:51:05.684Z,8.2
2019-05-30T02:52:08.176Z,8.2
2019-05-30T02:53:07.523Z,8.2
2019-05-30T02:54:08.750Z,8.1
2019-05-30T02:55:08.385Z,8.1
2019-05-30T02:56:06.410Z,8.1
2019-05-30T02:57:05.562Z,8.1
2019-05-30T02:58:08.031Z,8.1
2019-05-30T02:59:08.561Z,8.1
2019-05-30T03:00:09.947Z,8.1
2019-05-30T03:01:08.586Z,8.1
2019-05-30T03:02:16.539Z,8.1
2019-05-30T03:03:09.117Z,8.1
2019-05-30T03:04:08.215Z,8.1
2019-05-30T03:05:08.603Z,8.1
2019-05-30T03:06:08.264Z,8.1
2019-05-30T03:07:09.063Z,8.1
2019-05-30T03:08:11.040Z,8
2019-05-30T03:09:08.355Z,8
2019-05-30T03:10:09.588Z,8
2019-05-30T03:11:10.708Z,8
2019-05-30T03:12:08.217Z,7.9
2019-05-30T03:13:08.170Z,8
2019-05-30T03:14:08.562Z,8
2019-05-30T03:15:11.808Z,7.9
2019-05-30T03:16:09.217Z,7.9
2019-05-30T03:17:10.137Z,8
2019-05-30T03:18:09.640Z,7.9
2019-05-30T03:19:04.037Z,7.9
2019-05-30T03:20:23.359Z,7.9
2019-05-30T03:21:07.761Z,7.9
2019-05-30T03:22:07.281Z,7.8
2019-05-30T03:23:08.364Z,7.8
2019-05-30T03:24:09.636Z,7.8
2019-05-30T03:25:07.783Z,7.9
2019-05-30T03:26:09.280Z,7.8
2019-05-30T03:27:07.434Z,7.8
2019-05-30T03:28:07.613Z,7.8
2019-05-30T03:29:09.139Z,7.8
2019-05-30T03:30:25.137Z,7.8
2019-05-30T03:31:26.531Z,7.8
2019-05-30T03:33:18.441Z,7.8
2019-05-30T03:33:41.274Z,7.9
2019-05-30T03:34:25.191Z,7.9
2019-05-30T03:35:23.617Z,7.9
2019-05-30T03:36:28.127Z,7.9
2019-05-30T03:37:27.696Z,7.9
2019-05-30T03:38:06.158Z,7.9
2019-05-30T03:39:07.198Z,7.9
2019-05-30T03:40:02.817Z,7.9
2019-05-30T03:41:07.552Z,7.9
2019-05-30T03:42:06.469Z,7.9
2019-05-30T03:43:08.703Z,7.9
2019-05-30T03:44:08.420Z,7.9
2019-05-30T03:45:09.116Z,7.9
2019-05-30T03:46:06.745Z,7.9
2019-05-30T03:47:06.823Z,7.9
2019-05-30T03:48:09.092Z,7.9
2019-05-30T03:49:07.019Z,7.9
2019-05-30T03:50:11.178Z,7.9
2019-05-30T03:51:05.759Z,7.9
2019-05-30T03:52:09.902Z,7.9
2019-05-30T03:53:09.068Z,7.9
2019-05-30T03:54:09.287Z,7.9
2019-05-30T03:55:09.208Z,7.9
2019-05-30T03:56:06.197Z,8
2019-05-30T03:57:07.006Z,7.9
2019-05-30T03:58:02.605Z,8
2019-05-30T03:59:03.053Z,8
2019-05-30T04:00:03.024Z,8
2019-05-30T04:01:02.631Z,8
2019-05-30T04:02:02.884Z,8.1
2019-05-30T04:03:02.878Z,8.1
2019-05-30T04:04:02.503Z,8.2
2019-05-30T04:05:03.045Z,8.2
2019-05-30T04:06:02.597Z,8.2
2019-05-30T04:07:03.099Z,8.2
2019-05-30T04:08:02.991Z,8.3
2019-05-30T04:09:02.681Z,8.3
2019-05-30T04:10:03.576Z,8.3
2019-05-30T04:11:02.734Z,8.3
2019-05-30T04:12:03.048Z,8.2
2019-05-30T04:13:02.959Z,8.2
2019-05-30T04:14:03.291Z,8.2
2019-05-30T04:15:03.148Z,8.1
2019-05-30T04:16:02.690Z,8.1
2019-05-30T04:17:03.408Z,8.1
2019-05-30T04:18:03.172Z,8.1
2019-05-30T04:19:02.513Z,8.1
2019-05-30T04:20:03.269Z,8.1
2019-05-30T04:21:02.997Z,8.1
2019-05-30T04:22:02.750Z,8.1
2019-05-30T04:23:03.267Z,8.1
2019-05-30T04:24:03.063Z,8.1
2019-05-30T04:25:02.569Z,8.1
2019-05-30T04:26:03.258Z,8.1
2019-05-30T04:27:02.925Z,8.1
2019-05-30T04:28:03.352Z,8.1
2019-05-30T04:29:03.199Z,8
2019-05-30T04:30:02.842Z,8.1
2019-05-30T04:31:02.526Z,8.1
2019-05-30T04:32:03.210Z,8.1
2019-05-30T04:33:33.608Z,8.1
2019-05-30T04:35:03.230Z,8.2
2019-05-30T04:36:02.815Z,8.3
2019-05-30T04:37:03.326Z,8.3
2019-05-30T04:38:03.213Z,8.4
2019-05-30T04:39:02.985Z,8.4
2019-05-30T04:40:02.614Z,8.4
2019-05-30T04:41:03.098Z,8.4
2019-05-30T04:42:02.711Z,8.4
2019-05-30T04:43:03.090Z,8.4
2019-05-30T04:44:02.864Z,8.6
2019-05-30T04:45:02.750Z,8.5
2019-05-30T04:46:03.353Z,8.4
2019-05-30T04:47:02.863Z,8.4
2019-05-30T04:48:02.586Z,8.6
2019-05-30T04:49:02.976Z,8.6
2019-05-30T04:50:03.091Z,8.6
2019-05-30T04:51:03.301Z,8.7
2019-05-30T04:52:03.348Z,8.7
2019-05-30T04:53:02.961Z,8.8
2019-05-30T04:54:02.421Z,8.8
2019-05-30T04:55:03.144Z,8.9
2019-05-30T04:56:02.649Z,8.9
2019-05-30T04:57:03.205Z,8.9
2019-05-30T04:58:03.146Z,8.9
2019-05-30T04:59:02.736Z,8.9
2019-05-30T05:00:03.483Z,9
2019-05-30T05:01:03.134Z,9.1
2019-05-30T05:02:02.626Z,9.1
2019-05-30T05:03:03.487Z,9.1
2019-05-30T05:04:03.228Z,9.2
2019-05-30T05:05:02.691Z,9.2
2019-05-30T05:06:03.422Z,9.3
2019-05-30T05:07:02.577Z,9.3
2019-05-30T05:08:02.484Z,9.3
2019-05-30T05:09:03.226Z,9.4
2019-05-30T05:10:03.008Z,9.4
2019-05-30T05:11:03.240Z,9.5
2019-05-30T05:12:03.022Z,9.6
2019-05-30T05:13:02.604Z,9.4
2019-05-30T05:14:02.643Z,9.4
2019-05-30T05:15:03.441Z,9.4
2019-05-30T05:16:02.662Z,9.4
2019-05-30T05:17:03.242Z,9.4
2019-05-30T05:18:03.141Z,9.6
2019-05-30T05:19:02.471Z,9.6
2019-05-30T05:20:03.512Z,9.6
2019-05-30T05:21:02.860Z,9.6
2019-05-30T05:22:02.600Z,9.7
2019-05-30T05:23:03.358Z,9.8
2019-05-30T05:24:03.311Z,9.8
2019-05-30T05:25:02.696Z,9.9
2019-05-30T05:26:03.125Z,9.9
2019-05-30T05:27:02.796Z,10.1
2019-05-30T05:28:03.453Z,10.1
2019-05-30T05:29:03.059Z,10.3
2019-05-30T05:30:02.615Z,10.3
2019-05-30T05:31:03.455Z,10.3
2019-05-30T05:32:03.054Z,10.3
2019-05-30T05:33:02.645Z,10.3
2019-05-30T05:34:03.360Z,10.3
2019-05-30T05:35:02.782Z,10.4
2019-05-30T05:36:02.607Z,10.4
2019-05-30T05:37:03.088Z,10.4
2019-05-30T05:38:02.611Z,10.4
2019-05-30T05:39:03.507Z,10.5
2019-05-30T05:40:03.045Z,10.6
2019-05-30T05:41:02.609Z,10.5
2019-05-30T05:42:03.479Z,10.4
2019-05-30T05:43:02.960Z,10.5
2019-05-30T05:44:02.371Z,10.6
2019-05-30T05:45:03.085Z,10.7
2019-05-30T05:46:02.886Z,10.6
2019-05-30T05:47:02.315Z,10.5
2019-05-30T05:48:03.253Z,10.4
2019-05-30T05:49:02.610Z,10.4
2019-05-30T05:50:03.415Z,10.4
2019-05-30T05:51:02.887Z,10.4
2019-05-30T05:52:03.247Z,10.6
2019-05-30T05:53:03.294Z,10.6
2019-05-30T05:54:02.648Z,10.6
2019-05-30T05:55:03.366Z,10.6
2019-05-30T05:56:03.090Z,10.6
2019-05-30T05:57:02.431Z,10.6
2019-05-30T05:58:04.511Z,10.8
2019-05-30T05:59:03.023Z,10.7
2019-05-30T06:00:02.761Z,10.7
2019-05-30T06:01:03.391Z,10.8
2019-05-30T06:02:03.011Z,10.8
2019-05-30T06:03:02.262Z,11
2019-05-30T06:04:13.968Z,11
2019-05-30T06:05:03.049Z,11.1
2019-05-30T06:06:03.409Z,11.2
2019-05-30T06:07:03.326Z,11.2
2019-05-30T06:08:02.811Z,11.3
2019-05-30T06:09:03.218Z,11.3
2019-05-30T06:10:02.988Z,11.3
2019-05-30T06:11:02.703Z,11.1
2019-05-30T06:12:03.333Z,11.1
2019-05-30T06:13:03.195Z,11.1
2019-05-30T06:14:02.533Z,11.3
2019-05-30T06:15:03.608Z,11.3
2019-05-30T06:16:02.840Z,11.4
2019-05-30T06:17:03.383Z,11.6
2019-05-30T06:18:03.000Z,11.7
2019-05-30T06:19:02.959Z,11.8
2019-05-30T06:20:03.571Z,11.9
2019-05-30T06:21:02.975Z,11.9
2019-05-30T06:22:02.547Z,11.9
2019-05-30T06:23:03.230Z,12
2019-05-30T06:24:02.851Z,12
2019-05-30T06:25:03.576Z,12
2019-05-30T06:26:03.268Z,12
2019-05-30T06:27:02.554Z,12.1
2019-05-30T06:28:03.353Z,12.2
2019-05-30T06:29:02.855Z,12.3
2019-05-30T06:30:02.637Z,12.4
2019-05-30T06:31:03.359Z,12.4
2019-05-30T06:32:03.082Z,12.5
2019-05-30T06:33:03.546Z,12.6
2019-05-30T06:34:03.075Z,12.5
2019-05-30T06:35:02.742Z,12.4
2019-05-30T06:36:03.291Z,12.4
2019-05-30T06:37:03.055Z,12.4
2019-05-30T06:38:02.639Z,12.6
2019-05-30T06:39:03.178Z,12.8
2019-05-30T06:40:02.759Z,12.8
2019-05-30T06:41:03.243Z,12.9
2019-05-30T06:42:02.747Z,13
2019-05-30T06:43:02.773Z,13.1
2019-05-30T06:44:06.010Z,13
2019-05-30T06:45:03.073Z,12.9
2019-05-30T06:46:02.602Z,13
2019-05-30T06:47:03.269Z,13
2019-05-30T06:48:02.856Z,13.1
2019-05-30T06:49:03.187Z,13
2019-05-30T06:50:03.140Z,13
2019-05-30T06:51:02.740Z,13.1
2019-05-30T06:52:03.268Z,13.1
2019-05-30T06:53:02.760Z,12.9
2019-05-30T06:54:03.411Z,12.9
2019-05-30T06:55:02.882Z,12.9
2019-05-30T06:56:03.156Z,13.1
2019-05-30T06:57:03.678Z,13.3
2019-05-30T06:58:03.045Z,13.4
2019-05-30T06:59:02.838Z,13.5
2019-05-30T07:00:03.619Z,13.6
2019-05-30T07:01:03.016Z,13.8
2019-05-30T07:02:02.781Z,13.8
2019-05-30T07:03:03.701Z,13.9
2019-05-30T07:04:03.981Z,13.9
2019-05-30T07:05:04.517Z,13.9
2019-05-30T07:06:04.710Z,13.9
2019-05-30T07:07:06.737Z,13.9
2019-05-30T07:08:03.423Z,13.9
2019-05-30T07:09:03.046Z,13.9
2019-05-30T07:10:02.931Z,13.9
2019-05-30T07:11:03.303Z,14.1
2019-05-30T07:12:03.075Z,14.3
2019-05-30T07:13:02.753Z,14.3
2019-05-30T07:14:02.450Z,14.2
2019-05-30T07:15:03.269Z,14.2
2019-05-30T07:16:02.681Z,14.1
2019-05-30T07:17:03.323Z,14.1
2019-05-30T07:18:03.000Z,14.2
2019-05-30T07:19:03.216Z,14.1
2019-05-30T07:20:03.366Z,14.1
2019-05-30T07:21:02.883Z,14.3
2019-05-30T07:22:03.177Z,14.3
2019-05-30T07:23:03.112Z,14.4
2019-05-30T07:24:03.016Z,14.6
2019-05-30T07:25:03.280Z,14.6
2019-05-30T07:26:04.044Z,14.4
2019-05-30T07:27:02.649Z,14.6
2019-05-30T07:28:03.384Z,14.7
2019-05-30T07:29:02.477Z,14.9
2019-05-30T07:30:03.300Z,14.8
2019-05-30T07:31:02.855Z,14.7
2019-05-30T07:32:02.747Z,14.7
2019-05-30T07:33:03.441Z,14.5
2019-05-30T07:34:02.974Z,14.6
2019-05-30T07:35:07.752Z,14.6
2019-05-30T07:36:03.230Z,14.8
2019-05-30T07:37:02.679Z,14.9
2019-05-30T07:38:02.725Z,14.8
2019-05-30T07:39:03.189Z,14.9
2019-05-30T07:40:03.053Z,15
2019-05-30T07:41:03.604Z,14.9
2019-05-30T07:42:07.146Z,14.9
2019-05-30T07:43:02.689Z,15
2019-05-30T07:44:02.335Z,15.1
2019-05-30T07:45:03.029Z,15.2
2019-05-30T07:46:02.468Z,15.3
2019-05-30T07:47:03.434Z,15.3
2019-05-30T07:48:02.877Z,15.4
2019-05-30T07:49:03.429Z,15.4
2019-05-30T07:50:03.207Z,15.6
2019-05-30T07:51:03.033Z,15.6
2019-05-30T07:52:03.173Z,15.8
2019-05-30T07:53:02.683Z,15.8
2019-05-30T07:54:03.045Z,15.8
2019-05-30T07:55:03.272Z,15.9
2019-05-30T07:56:02.584Z,15.6
2019-05-30T07:57:02.856Z,15.4
2019-05-30T07:58:03.064Z,15.7
2019-05-30T07:59:02.678Z,15.8
2019-05-30T08:00:03.462Z,16.2
2019-05-30T08:01:02.681Z,16.6
2019-05-30T08:02:03.486Z,16.9
2019-05-30T08:03:03.184Z,16.5
2019-05-30T08:04:02.844Z,15.9
2019-05-30T08:05:02.993Z,15.8
2019-05-30T08:06:02.842Z,15.7
2019-05-30T08:07:02.701Z,15.8
2019-05-30T08:08:03.035Z,15.6
2019-05-30T08:09:02.749Z,15.4
2019-05-30T08:10:03.603Z,15.1
2019-05-30T08:11:10.490Z,15
2019-05-30T08:12:02.608Z,15.1
2019-05-30T08:13:03.378Z,14.8
2019-05-30T08:14:02.897Z,14.6
2019-05-30T08:15:03.602Z,14.5
2019-05-30T08:16:03.118Z,14.6
2019-05-30T08:17:03.136Z,14.6
2019-05-30T08:18:02.637Z,14.6
2019-05-30T08:19:03.010Z,14.6
2019-05-30T08:20:02.708Z,14.8
2019-05-30T08:21:03.289Z,14.8
2019-05-30T08:22:02.807Z,15.6
2019-05-30T08:23:02.795Z,16
2019-05-30T08:24:03.545Z,16.2
2019-05-30T08:25:03.043Z,16.4
2019-05-30T08:26:02.827Z,16.2
2019-05-30T08:27:03.213Z,16.3
2019-05-30T08:28:02.885Z,16.3
2019-05-30T08:29:02.939Z,15.8
2019-05-30T08:30:03.599Z,15.8
2019-05-30T08:31:02.898Z,15.6
2019-05-30T08:32:03.218Z,15.4
2019-05-30T08:33:03.188Z,15.2
2019-05-30T08:34:03.163Z,15.1
2019-05-30T08:35:02.839Z,15
2019-05-30T08:36:06.139Z,15
2019-05-30T08:37:02.553Z,15.1
2019-05-30T08:38:03.257Z,15.1
2019-05-30T08:39:02.700Z,15
2019-05-30T08:40:03.514Z,14.9
2019-05-30T08:41:03.294Z,14.9
2019-05-30T08:42:02.860Z,14.9
2019-05-30T08:43:03.594Z,14.9
2019-05-30T08:44:03.098Z,14.9
2019-05-30T08:45:02.810Z,15.1
2019-05-30T08:46:02.620Z,15.1
2019-05-30T08:47:03.134Z,15.2
2019-05-30T08:48:02.795Z,15.1
2019-05-30T08:49:03.330Z,15.1
2019-05-30T08:50:02.902Z,15.1
2019-05-30T08:51:03.262Z,15
2019-05-30T08:52:02.760Z,15
2019-05-30T08:53:02.834Z,14.9
2019-05-30T08:54:03.334Z,15.1
2019-05-30T08:55:03.072Z,15.1
2019-05-30T08:56:02.582Z,15.4
2019-05-30T08:57:03.353Z,15.4
2019-05-30T08:58:03.030Z,15.4
2019-05-30T08:59:02.813Z,15.5
2019-05-30T09:00:03.233Z,15.9
2019-05-30T09:01:02.839Z,16.3
2019-05-30T09:02:03.302Z,16.4
2019-05-30T09:03:03.425Z,16.3
2019-05-30T09:04:03.499Z,16.5
2019-05-30T09:05:07.379Z,16.6
2019-05-30T09:06:04.677Z,16.8
2019-05-30T09:07:03.451Z,16.9
2019-05-30T09:08:03.208Z,16.8
2019-05-30T09:09:02.590Z,16.9
2019-05-30T09:10:03.292Z,17.1
2019-05-30T09:11:02.704Z,17.1
2019-05-30T09:12:02.699Z,16.9
2019-05-30T09:13:03.274Z,17.4
2019-05-30T09:14:03.087Z,17.5
2019-05-30T09:15:03.496Z,17.3
2019-05-30T09:16:03.021Z,16.8
2019-05-30T09:17:03.272Z,16.6
2019-05-30T09:18:03.430Z,16.8
2019-05-30T09:19:03.250Z,16.8
2019-05-30T09:20:02.787Z,16.9
2019-05-30T09:21:03.399Z,17.2
2019-05-30T09:22:02.956Z,17.4
2019-05-30T09:23:02.623Z,17.6
2019-05-30T09:24:02.542Z,17.8
2019-05-30T09:25:03.323Z,17.8
2019-05-30T09:26:02.778Z,17.8
2019-05-30T09:27:03.211Z,17.3
2019-05-30T09:28:02.868Z,17
2019-05-30T09:29:04.071Z,16.9
2019-05-30T09:30:03.126Z,16.6
2019-05-30T09:31:03.042Z,16.6
2019-05-30T09:32:02.746Z,16.4
2019-05-30T09:33:02.776Z,16.4
2019-05-30T09:34:02.793Z,16.3
2019-05-30T09:35:02.570Z,16.3
2019-05-30T09:36:14.225Z,16.2
2019-05-30T09:37:02.764Z,16.3
2019-05-30T09:38:02.561Z,16.2
2019-05-30T09:39:02.886Z,16.2
2019-05-30T09:40:02.789Z,16.1
2019-05-30T09:41:03.225Z,15.9
2019-05-30T09:42:02.769Z,16.1
2019-05-30T09:43:02.806Z,16.2
2019-05-30T09:44:03.352Z,16.2
2019-05-30T09:45:02.943Z,16.3
2019-05-30T09:46:03.471Z,16.3
2019-05-30T09:47:03.009Z,16.3
2019-05-30T09:48:02.973Z,16.2
2019-05-30T09:49:02.517Z,16.1
2019-05-30T09:50:04.191Z,16.2
2019-05-30T09:51:02.455Z,16.3
2019-05-30T09:52:03.448Z,16.3
2019-05-30T09:53:02.869Z,16.7
2019-05-30T09:54:03.241Z,17.2
2019-05-30T09:55:03.394Z,17.4
2019-05-30T09:56:02.872Z,17.3
2019-05-30T09:57:03.529Z,17.4
2019-05-30T09:58:03.089Z,17.5
2019-05-30T09:59:02.721Z,17.4
2019-05-30T10:00:03.559Z,17.3
2019-05-30T10:01:02.936Z,17.6
2019-05-30T10:02:02.590Z,17.6
2019-05-30T10:03:03.161Z,17.9
2019-05-30T10:04:02.698Z,18.3
2019-05-30T10:05:02.534Z,18.5
2019-05-30T10:06:02.980Z,18.8
2019-05-30T10:07:02.972Z,18.8
2019-05-30T10:08:02.619Z,18.8
2019-05-30T10:09:03.122Z,18.4
2019-05-30T10:10:03.554Z,18.6
2019-05-30T10:11:03.098Z,18.7
2019-05-30T10:12:02.910Z,18.8
2019-05-30T10:13:03.348Z,18.9
2019-05-30T10:14:03.207Z,19.1
2019-05-30T10:15:02.911Z,19.1
2019-05-30T10:16:03.391Z,19.2
2019-05-30T10:17:03.084Z,19.1
2019-05-30T10:18:02.793Z,19.2
2019-05-30T10:19:02.712Z,19.3
2019-05-30T10:20:03.234Z,19.2
2019-05-30T10:21:02.948Z,19.1
2019-05-30T10:22:03.430Z,19.1
2019-05-30T10:23:03.921Z,19.3
2019-05-30T10:24:02.757Z,19.6
2019-05-30T10:25:02.756Z,19
2019-05-30T10:26:03.300Z,17.9
2019-05-30T10:27:02.865Z,17.8
2019-05-30T10:28:03.384Z,17.4
2019-05-30T10:29:03.169Z,17.4
2019-05-30T10:30:03.532Z,17.3
2019-05-30T10:31:03.028Z,17.3
2019-05-30T10:32:02.864Z,17.4
2019-05-30T10:33:03.539Z,17.1
2019-05-30T10:34:03.366Z,17.2
2019-05-30T10:35:02.873Z,17.4
2019-05-30T10:36:02.343Z,17.6
2019-05-30T10:37:03.019Z,17.6
2019-05-30T10:38:03.416Z,17.8
2019-05-30T10:39:02.816Z,17.9
2019-05-30T10:40:03.474Z,18
2019-05-30T10:41:03.207Z,17.9
2019-05-30T10:42:03.236Z,18.1
2019-05-30T10:43:02.907Z,18.2
2019-05-30T10:44:03.561Z,18.3
2019-05-30T10:45:03.423Z,18.4
2019-05-30T10:46:02.946Z,18.6
2019-05-30T10:47:02.649Z,18.7
2019-05-30T10:48:03.040Z,18.7
2019-05-30T10:49:02.551Z,18.8
2019-05-30T10:50:02.526Z,18.9
2019-05-30T10:51:03.071Z,18.6
2019-05-30T10:52:02.723Z,18.6
2019-05-30T10:53:03.365Z,18.8
2019-05-30T10:54:03.171Z,18.6
2019-05-30T10:55:02.761Z,18.6
2019-05-30T10:56:03.334Z,19
2019-05-30T10:57:03.233Z,19.3
2019-05-30T10:58:02.709Z,19.1
2019-05-30T10:59:03.183Z,18.9
2019-05-30T11:00:03.199Z,18.7
2019-05-30T11:01:03.264Z,18.6
2019-05-30T11:02:02.840Z,18.9
2019-05-30T11:03:02.863Z,19.1
2019-05-30T11:04:03.583Z,19.1
2019-05-30T11:05:03.007Z,19.5
2019-05-30T11:06:02.521Z,19.2
2019-05-30T11:07:12.303Z,18.9
2019-05-30T11:08:06.686Z,18.4
2019-05-30T11:09:03.117Z,18.4
2019-05-30T11:10:03.666Z,18.6
2019-05-30T11:11:02.874Z,18.9
2019-05-30T11:12:02.932Z,19
2019-05-30T11:13:06.273Z,18.7
2019-05-30T11:14:02.820Z,18.8
2019-05-30T11:15:03.140Z,18.6
2019-05-30T11:16:03.133Z,18.4
2019-05-30T11:17:02.977Z,18.3
2019-05-30T11:18:02.577Z,18.3
2019-05-30T11:19:08.095Z,18.3
2019-05-30T11:20:03.023Z,18.3
2019-05-30T11:21:02.691Z,18.3
2019-05-30T11:22:03.215Z,18.6
2019-05-30T11:23:03.059Z,18.9
2019-05-30T11:24:02.668Z,19.3
2019-05-30T11:25:03.105Z,19.4
2019-05-30T11:26:02.562Z,19.7
2019-05-30T11:27:03.552Z,19.8
2019-05-30T11:28:03.232Z,19.9
2019-05-30T11:29:02.711Z,20.1
2019-05-30T11:30:03.227Z,20.1
2019-05-30T11:31:05.484Z,20.3
2019-05-30T11:32:03.435Z,20.4
2019-05-30T11:33:03.262Z,20.4
2019-05-30T11:34:02.836Z,20.1
2019-05-30T11:35:02.544Z,20.1
2019-05-30T11:36:03.232Z,19.9
2019-05-30T11:37:19.452Z,19.8
2019-05-30T11:38:03.256Z,19.3
2019-05-30T11:39:02.745Z,18.7
2019-05-30T11:40:03.263Z,18.8
2019-05-30T11:41:03.305Z,18.8
2019-05-30T11:42:02.841Z,18.8
2019-05-30T11:43:02.790Z,19.1
2019-05-30T11:44:04.492Z,19.2
2019-05-30T11:45:02.996Z,19.1
2019-05-30T11:46:02.613Z,19.4
2019-05-30T11:47:03.001Z,19.5
2019-05-30T11:48:02.710Z,19.4
2019-05-30T11:49:03.292Z,19.3
2019-05-30T11:50:03.112Z,19.3
2019-05-30T11:51:02.537Z,18.9
2019-05-30T11:52:03.409Z,18.7
2019-05-30T11:53:02.826Z,18.1
2019-05-30T11:54:03.475Z,18.1
2019-05-30T11:55:03.399Z,17.8
2019-05-30T11:56:02.663Z,17.6
2019-05-30T11:57:03.546Z,17.6
2019-05-30T11:58:03.232Z,17.5
2019-05-30T11:59:02.841Z,17.4
2019-05-30T12:00:03.587Z,17.5
2019-05-30T12:01:03.159Z,17.7
2019-05-30T12:02:02.826Z,18.4
2019-05-30T12:03:03.599Z,19
2019-05-30T12:04:03.016Z,19.2
2019-05-30T12:05:02.600Z,19.4
2019-05-30T12:06:02.579Z,19.7
2019-05-30T12:07:03.065Z,19.8
2019-05-30T12:08:03.575Z,19.9
2019-05-30T12:09:03.285Z,19.6
2019-05-30T12:10:02.792Z,19.5
2019-05-30T12:11:02.637Z,19.4
2019-05-30T12:12:03.281Z,19.6
2019-05-30T12:13:02.797Z,19.7
2019-05-30T12:14:03.110Z,19.8
2019-05-30T12:15:02.904Z,19.6
2019-05-30T12:16:02.775Z,20
2019-05-30T12:17:03.511Z,19.7
2019-05-30T12:18:03.649Z,19.2
2019-05-30T12:19:02.597Z,19
2019-05-30T12:20:03.133Z,18.8
2019-05-30T12:21:03.015Z,18.6
2019-05-30T12:22:02.579Z,18.4
2019-05-30T12:23:02.580Z,18.4
2019-05-30T12:24:02.913Z,18.6
2019-05-30T12:25:02.935Z,18.8
2019-05-30T12:26:03.063Z,18.7
2019-05-30T12:27:02.576Z,18.7
2019-05-30T12:28:05.181Z,18.5
2019-05-30T12:29:03.019Z,18.4
2019-05-30T12:30:02.849Z,18.4
2019-05-30T12:31:06.984Z,18.1
2019-05-30T12:32:03.615Z,17.9
2019-05-30T12:33:03.574Z,17.9
2019-05-30T12:34:02.992Z,17.8
2019-05-30T12:35:03.469Z,17.8
2019-05-30T12:36:03.485Z,17.9
2019-05-30T12:37:02.977Z,18
2019-05-30T12:38:07.006Z,17.9
2019-05-30T12:39:03.019Z,18.6
2019-05-30T12:40:03.403Z,18.8
2019-05-30T12:41:03.175Z,18.7
2019-05-30T12:42:03.579Z,19
2019-05-30T12:43:05.201Z,19.1
2019-05-30T12:44:03.548Z,19.1
2019-05-30T12:45:07.509Z,19.6
2019-05-30T12:46:03.430Z,20
2019-05-30T12:47:03.727Z,20.1
2019-05-30T12:48:04.460Z,20.3
2019-05-30T12:49:03.877Z,20.1
2019-05-30T12:50:03.712Z,19.8
2019-05-30T12:51:03.667Z,19.9
2019-05-30T12:52:03.631Z,19.9
2019-05-30T12:53:03.154Z,20
2019-05-30T12:54:02.996Z,19.8
2019-05-30T12:55:03.651Z,19.9
2019-05-30T12:56:03.241Z,20
2019-05-30T12:57:02.969Z,20.2
2019-05-30T12:58:03.517Z,20.6
2019-05-30T12:59:03.231Z,20.4
2019-05-30T13:00:18.825Z,20.3
2019-05-30T13:01:03.517Z,20.4
2019-05-30T13:02:03.260Z,20.3
2019-05-30T13:03:03.305Z,20.6
2019-05-30T13:04:03.560Z,21
2019-05-30T13:05:03.255Z,21
2019-05-30T13:06:03.604Z,21.1
2019-05-30T13:07:03.507Z,21
2019-05-30T13:08:22.307Z,20.8
2019-05-30T13:09:03.635Z,20.3
2019-05-30T13:10:03.584Z,20.1
2019-05-30T13:11:03.988Z,20.3
2019-05-30T13:12:03.123Z,20.6
2019-05-30T13:13:04.211Z,20.3
2019-05-30T13:14:02.960Z,20.3
2019-05-30T13:15:03.977Z,20.3
2019-05-30T13:16:09.230Z,20.5
2019-05-30T13:17:04.412Z,20.6
2019-05-30T13:18:03.268Z,20.5
2019-05-30T13:19:04.538Z,20.6
2019-05-30T13:20:03.631Z,20.6
2019-05-30T13:21:04.341Z,20.6
2019-05-30T13:22:12.719Z,20.6
2019-05-30T13:23:04.882Z,20.6
2019-05-30T13:24:03.922Z,20.8
2019-05-30T13:25:03.937Z,20.9
2019-05-30T13:26:03.989Z,21.2
2019-05-30T13:27:04.012Z,20.9
2019-05-30T13:28:08.694Z,20.3
2019-05-30T13:29:04.572Z,20.3
2019-05-30T13:30:04.288Z,20.2
2019-05-30T13:31:02.696Z,19.8